sensor_id;sensor_type;location;lat;lon;timestamp;P1;durP1;ratioP1;P2;durP2;ratioP2
64686;SDS011;51113;53.646;-113.674;2023-04-25T00:02:28;14.48;;;4.45;;
64686;SDS011;51113;53.646;-113.674;2023-04-25T00:04:57;8.38;;;4.50;;
64686;SDS011;51113;53.646;-113.674;2023-04-25T00:07:27;8.57;;;4.50;;
64686;SDS011;51113;53.646;-113.674;2023-04-25T00:09:55;9.57;;;4.45;;
64686;SDS011;51113;53.646;-113.674;2023-04-25T00:12:24;14.75;;;5.05;;
64686;SDS011;51113;53.646;-113.674;2023-04-25T00:14:55;12.85;;;4.47;;
64686;SDS011;51113;53.646;-113.674;2023-04-25T00:17:28;9.82;;;4.72;;
64686;SDS011;51113;53.646;-113.674;2023-04-25T00:19:57;12.80;;;4.90;;
64686;SDS011;51113;53.646;-113.674;2023-04-25T00:22:25;15.43;;;4.80;;
64686;SDS011;51113;53.646;-113.674;2023-04-25T00:24:54;15.40;;;4.70;;
64686;SDS011;51113;53.646;-113.674;2023-04-25T00:27:25;10.85;;;4.53;;
64686;SDS011;51113;53.646;-113.674;2023-04-25T00:29:54;11.93;;;4.68;;
64686;SDS011;51113;53.646;-113.674;2023-04-25T00:32:22;10.38;;;4.40;;
64686;SDS011;51113;53.646;-113.674;2023-04-25T00:34:51;11.85;;;4.80;;
64686;SDS011;51113;53.646;-113.674;2023-04-25T00:37:20;11.93;;;4.72;;
64686;SDS011;51113;53.646;-113.674;2023-04-25T00:39:48;9.90;;;4.18;;
64686;SDS011;51113;53.646;-113.674;2023-04-25T00:42:16;11.38;;;4.55;;
64686;SDS011;51113;53.646;-113.674;2023-04-25T00:44:45;11.45;;;4.25;;
64686;SDS011;51113;53.646;-113.674;2023-04-25T00:47:15;11.75;;;4.35;;
64686;SDS011;51113;53.646;-113.674;2023-04-25T00:49:43;9.82;;;4.35;;
64686;SDS011;51113;53.646;-113.674;2023-04-25T00:52:11;11.10;;;3.85;;
64686;SDS011;51113;53.646;-113.674;2023-04-25T00:54:39;11.45;;;3.40;;
64686;SDS011;51113;53.646;-113.674;2023-04-25T00:57:08;13.98;;;3.70;;
64686;SDS011;51113;53.646;-113.674;2023-04-25T00:59:37;7.07;;;3.28;;
64686;SDS011;51113;53.646;-113.674;2023-04-25T01:02:05;11.88;;;3.38;;
64686;SDS011;51113;53.646;-113.674;2023-04-25T01:04:34;8.95;;;2.88;;
64686;SDS011;51113;53.646;-113.674;2023-04-25T01:07:02;17.23;;;3.47;;
64686;SDS011;51113;53.646;-113.674;2023-04-25T01:09:31;10.00;;;2.90;;
64686;SDS011;51113;53.646;-113.674;2023-04-25T01:11:59;7.72;;;3.28;;
64686;SDS011;51113;53.646;-113.674;2023-04-25T01:14:29;8.82;;;3.15;;
64686;SDS011;51113;53.646;-113.674;2023-04-25T01:16:57;5.15;;;3.00;;
64686;SDS011;51113;53.646;-113.674;2023-04-25T01:19:26;9.95;;;3.15;;
64686;SDS011;51113;53.646;-113.674;2023-04-25T01:21:55;9.32;;;2.85;;
64686;SDS011;51113;53.646;-113.674;2023-04-25T01:24:23;11.68;;;2.83;;
64686;SDS011;51113;53.646;-113.674;2023-04-25T01:26:53;9.93;;;2.55;;
64686;SDS011;51113;53.646;-113.674;2023-04-25T01:29:24;10.45;;;2.80;;
64686;SDS011;51113;53.646;-113.674;2023-04-25T01:31:53;7.72;;;2.72;;
64686;SDS011;51113;53.646;-113.674;2023-04-25T01:34:22;8.13;;;2.90;;
64686;SDS011;51113;53.646;-113.674;2023-04-25T01:36:50;7.72;;;2.60;;
64686;SDS011;51113;53.646;-113.674;2023-04-25T01:39:19;6.07;;;2.75;;
64686;SDS011;51113;53.646;-113.674;2023-04-25T01:41:48;9.70;;;2.60;;
64686;SDS011;51113;53.646;-113.674;2023-04-25T01:44:17;8.00;;;2.50;;
64686;SDS011;51113;53.646;-113.674;2023-04-25T01:46:45;5.10;;;2.28;;
64686;SDS011;51113;53.646;-113.674;2023-04-25T01:49:14;8.30;;;2.50;;
64686;SDS011;51113;53.646;-113.674;2023-04-25T01:51:42;7.65;;;2.70;;
64686;SDS011;51113;53.646;-113.674;2023-04-25T01:54:11;10.07;;;2.50;;
64686;SDS011;51113;53.646;-113.674;2023-04-25T01:56:41;8.45;;;2.25;;
64686;SDS011;51113;53.646;-113.674;2023-04-25T01:59:10;9.48;;;2.22;;
64686;SDS011;51113;53.646;-113.674;2023-04-25T02:01:39;9.18;;;2.45;;
64686;SDS011;51113;53.646;-113.674;2023-04-25T02:04:08;7.97;;;2.00;;
64686;SDS011;51113;53.646;-113.674;2023-04-25T02:06:37;8.15;;;2.08;;
64686;SDS011;51113;53.646;-113.674;2023-04-25T02:09:06;7.30;;;2.20;;
64686;SDS011;51113;53.646;-113.674;2023-04-25T02:11:34;8.25;;;2.00;;
64686;SDS011;51113;53.646;-113.674;2023-04-25T02:14:03;14.55;;;2.22;;
64686;SDS011;51113;53.646;-113.674;2023-04-25T02:16:32;9.38;;;2.28;;
64686;SDS011;51113;53.646;-113.674;2023-04-25T02:19:00;15.30;;;2.20;;
64686;SDS011;51113;53.646;-113.674;2023-04-25T02:21:30;9.02;;;2.35;;
64686;SDS011;51113;53.646;-113.674;2023-04-25T02:23:58;4.47;;;2.00;;
64686;SDS011;51113;53.646;-113.674;2023-04-25T02:26:26;6.40;;;2.13;;
64686;SDS011;51113;53.646;-113.674;2023-04-25T02:28:55;7.03;;;2.00;;
64686;SDS011;51113;53.646;-113.674;2023-04-25T02:31:24;7.45;;;2.17;;
64686;SDS011;51113;53.646;-113.674;2023-04-25T02:33:53;6.88;;;2.15;;
64686;SDS011;51113;53.646;-113.674;2023-04-25T02:36:22;5.68;;;2.20;;
64686;SDS011;51113;53.646;-113.674;2023-04-25T02:38:51;4.25;;;2.03;;
64686;SDS011;51113;53.646;-113.674;2023-04-25T02:41:20;9.50;;;2.40;;
64686;SDS011;51113;53.646;-113.674;2023-04-25T02:43:48;9.30;;;2.45;;
64686;SDS011;51113;53.646;-113.674;2023-04-25T02:46:17;9.52;;;2.42;;
64686;SDS011;51113;53.646;-113.674;2023-04-25T02:49:04;12.65;;;2.72;;
64686;SDS011;51113;53.646;-113.674;2023-04-25T02:51:33;10.50;;;2.30;;
64686;SDS011;51113;53.646;-113.674;2023-04-25T02:54:01;14.43;;;2.30;;
64686;SDS011;51113;53.646;-113.674;2023-04-25T02:56:30;5.95;;;2.00;;
64686;SDS011;51113;53.646;-113.674;2023-04-25T02:58:58;17.75;;;3.22;;
64686;SDS011;51113;53.646;-113.674;2023-04-25T03:01:27;8.48;;;2.20;;
64686;SDS011;51113;53.646;-113.674;2023-04-25T03:03:56;6.88;;;2.30;;
64686;SDS011;51113;53.646;-113.674;2023-04-25T03:06:24;3.95;;;2.10;;
64686;SDS011;51113;53.646;-113.674;2023-04-25T03:08:53;6.10;;;2.20;;
64686;SDS011;51113;53.646;-113.674;2023-04-25T03:11:21;10.50;;;2.50;;
64686;SDS011;51113;53.646;-113.674;2023-04-25T03:13:50;4.50;;;2.35;;
64686;SDS011;51113;53.646;-113.674;2023-04-25T03:16:19;8.48;;;2.17;;
64686;SDS011;51113;53.646;-113.674;2023-04-25T03:18:47;6.78;;;2.17;;
64686;SDS011;51113;53.646;-113.674;2023-04-25T03:21:18;11.02;;;2.35;;
64686;SDS011;51113;53.646;-113.674;2023-04-25T03:23:46;7.85;;;2.38;;
64686;SDS011;51113;53.646;-113.674;2023-04-25T03:26:14;11.25;;;2.30;;
64686;SDS011;51113;53.646;-113.674;2023-04-25T03:28:43;8.27;;;2.53;;
64686;SDS011;51113;53.646;-113.674;2023-04-25T03:31:11;6.03;;;2.35;;
64686;SDS011;51113;53.646;-113.674;2023-04-25T03:33:39;7.22;;;2.58;;
64686;SDS011;51113;53.646;-113.674;2023-04-25T03:36:08;8.73;;;2.97;;
64686;SDS011;51113;53.646;-113.674;2023-04-25T03:38:37;9.57;;;3.03;;
64686;SDS011;51113;53.646;-113.674;2023-04-25T03:41:06;9.82;;;2.90;;
64686;SDS011;51113;53.646;-113.674;2023-04-25T03:43:34;6.85;;;2.33;;
64686;SDS011;51113;53.646;-113.674;2023-04-25T03:46:03;6.90;;;2.80;;
64686;SDS011;51113;53.646;-113.674;2023-04-25T03:48:32;8.02;;;2.72;;
64686;SDS011;51113;53.646;-113.674;2023-04-25T03:51:00;7.25;;;2.72;;
64686;SDS011;51113;53.646;-113.674;2023-04-25T03:53:28;8.75;;;3.20;;
64686;SDS011;51113;53.646;-113.674;2023-04-25T03:55:57;11.35;;;3.40;;
64686;SDS011;51113;53.646;-113.674;2023-04-25T03:58:26;8.80;;;3.10;;
64686;SDS011;51113;53.646;-113.674;2023-04-25T04:00:54;7.22;;;3.20;;
64686;SDS011;51113;53.646;-113.674;2023-04-25T04:03:23;10.27;;;3.60;;
64686;SDS011;51113;53.646;-113.674;2023-04-25T04:05:52;6.53;;;3.63;;
64686;SDS011;51113;53.646;-113.674;2023-04-25T04:08:21;4.90;;;3.13;;
64686;SDS011;51113;53.646;-113.674;2023-04-25T04:10:49;11.40;;;3.55;;
64686;SDS011;51113;53.646;-113.674;2023-04-25T04:13:18;11.57;;;3.75;;
64686;SDS011;51113;53.646;-113.674;2023-04-25T04:15:46;9.20;;;3.83;;
64686;SDS011;51113;53.646;-113.674;2023-04-25T04:18:15;12.18;;;3.90;;
64686;SDS011;51113;53.646;-113.674;2023-04-25T04:20:43;5.90;;;3.60;;
64686;SDS011;51113;53.646;-113.674;2023-04-25T04:23:12;7.28;;;3.95;;
64686;SDS011;51113;53.646;-113.674;2023-04-25T04:25:41;7.95;;;4.07;;
64686;SDS011;51113;53.646;-113.674;2023-04-25T04:28:10;7.38;;;3.92;;
64686;SDS011;51113;53.646;-113.674;2023-04-25T04:30:38;7.80;;;4.07;;
64686;SDS011;51113;53.646;-113.674;2023-04-25T04:33:08;9.45;;;4.18;;
64686;SDS011;51113;53.646;-113.674;2023-04-25T04:35:37;14.70;;;5.28;;
64686;SDS011;51113;53.646;-113.674;2023-04-25T04:38:06;10.57;;;4.43;;
64686;SDS011;51113;53.646;-113.674;2023-04-25T04:40:34;11.88;;;4.60;;
64686;SDS011;51113;53.646;-113.674;2023-04-25T04:43:02;6.90;;;4.57;;
64686;SDS011;51113;53.646;-113.674;2023-04-25T04:45:31;10.07;;;3.90;;
64686;SDS011;51113;53.646;-113.674;2023-04-25T04:47:59;8.63;;;4.22;;
64686;SDS011;51113;53.646;-113.674;2023-04-25T04:50:28;14.63;;;4.50;;
64686;SDS011;51113;53.646;-113.674;2023-04-25T04:52:57;10.40;;;4.00;;
64686;SDS011;51113;53.646;-113.674;2023-04-25T04:55:25;8.13;;;3.72;;
64686;SDS011;51113;53.646;-113.674;2023-04-25T04:57:54;9.55;;;4.50;;
64686;SDS011;51113;53.646;-113.674;2023-04-25T05:00:23;9.02;;;4.18;;
64686;SDS011;51113;53.646;-113.674;2023-04-25T05:02:55;10.18;;;5.70;;
64686;SDS011;51113;53.646;-113.674;2023-04-25T05:05:24;11.68;;;5.72;;
64686;SDS011;51113;53.646;-113.674;2023-04-25T05:07:53;19.05;;;7.10;;
64686;SDS011;51113;53.646;-113.674;2023-04-25T05:10:21;11.40;;;6.80;;
64686;SDS011;51113;53.646;-113.674;2023-04-25T05:12:50;10.10;;;7.05;;
64686;SDS011;51113;53.646;-113.674;2023-04-25T05:15:19;20.08;;;8.02;;
64686;SDS011;51113;53.646;-113.674;2023-04-25T05:17:48;17.48;;;8.00;;
64686;SDS011;51113;53.646;-113.674;2023-04-25T05:20:17;13.20;;;7.68;;
64686;SDS011;51113;53.646;-113.674;2023-04-25T05:22:46;19.45;;;8.35;;
64686;SDS011;51113;53.646;-113.674;2023-04-25T05:25:14;21.02;;;8.70;;
64686;SDS011;51113;53.646;-113.674;2023-04-25T05:27:43;12.88;;;7.10;;
64686;SDS011;51113;53.646;-113.674;2023-04-25T05:30:12;13.65;;;7.38;;
64686;SDS011;51113;53.646;-113.674;2023-04-25T05:32:40;11.95;;;6.07;;
64686;SDS011;51113;53.646;-113.674;2023-04-25T05:35:10;11.00;;;5.88;;
64686;SDS011;51113;53.646;-113.674;2023-04-25T05:37:38;10.05;;;5.30;;
64686;SDS011;51113;53.646;-113.674;2023-04-25T05:40:07;13.85;;;5.13;;
64686;SDS011;51113;53.646;-113.674;2023-04-25T05:42:36;11.05;;;5.07;;
64686;SDS011;51113;53.646;-113.674;2023-04-25T05:45:04;11.00;;;5.22;;
64686;SDS011;51113;53.646;-113.674;2023-04-25T05:47:33;8.75;;;4.75;;
64686;SDS011;51113;53.646;-113.674;2023-04-25T05:50:02;10.35;;;5.13;;
64686;SDS011;51113;53.646;-113.674;2023-04-25T05:52:31;8.30;;;4.97;;
64686;SDS011;51113;53.646;-113.674;2023-04-25T05:55:00;14.73;;;4.40;;
64686;SDS011;51113;53.646;-113.674;2023-04-25T05:57:29;8.52;;;4.65;;
64686;SDS011;51113;53.646;-113.674;2023-04-25T05:59:57;6.82;;;4.00;;
64686;SDS011;51113;53.646;-113.674;2023-04-25T06:02:26;5.93;;;4.00;;
64686;SDS011;51113;53.646;-113.674;2023-04-25T06:04:55;9.23;;;4.75;;
64686;SDS011;51113;53.646;-113.674;2023-04-25T06:07:24;8.77;;;4.63;;
64686;SDS011;51113;53.646;-113.674;2023-04-25T06:09:53;9.95;;;4.35;;
64686;SDS011;51113;53.646;-113.674;2023-04-25T06:12:21;6.75;;;4.72;;
64686;SDS011;51113;53.646;-113.674;2023-04-25T06:14:49;8.98;;;4.32;;
64686;SDS011;51113;53.646;-113.674;2023-04-25T06:17:18;7.30;;;4.20;;
64686;SDS011;51113;53.646;-113.674;2023-04-25T06:19:47;8.50;;;4.22;;
64686;SDS011;51113;53.646;-113.674;2023-04-25T06:22:16;10.65;;;4.30;;
64686;SDS011;51113;53.646;-113.674;2023-04-25T06:24:45;10.75;;;3.72;;
64686;SDS011;51113;53.646;-113.674;2023-04-25T06:27:14;9.65;;;4.03;;
64686;SDS011;51113;53.646;-113.674;2023-04-25T06:29:42;8.57;;;4.18;;
64686;SDS011;51113;53.646;-113.674;2023-04-25T06:32:11;8.93;;;4.47;;
64686;SDS011;51113;53.646;-113.674;2023-04-25T06:34:40;9.00;;;4.40;;
64686;SDS011;51113;53.646;-113.674;2023-04-25T06:37:08;19.67;;;4.90;;
64686;SDS011;51113;53.646;-113.674;2023-04-25T06:39:37;6.85;;;4.43;;
64686;SDS011;51113;53.646;-113.674;2023-04-25T06:42:06;8.88;;;3.97;;
64686;SDS011;51113;53.646;-113.674;2023-04-25T06:44:35;7.82;;;4.22;;
64686;SDS011;51113;53.646;-113.674;2023-04-25T06:47:04;8.50;;;4.10;;
64686;SDS011;51113;53.646;-113.674;2023-04-25T06:49:32;9.20;;;4.25;;
64686;SDS011;51113;53.646;-113.674;2023-04-25T06:52:01;10.48;;;4.13;;
64686;SDS011;51113;53.646;-113.674;2023-04-25T06:54:30;10.50;;;4.65;;
64686;SDS011;51113;53.646;-113.674;2023-04-25T06:56:59;9.48;;;4.05;;
64686;SDS011;51113;53.646;-113.674;2023-04-25T06:59:29;9.50;;;4.60;;
64686;SDS011;51113;53.646;-113.674;2023-04-25T07:01:57;7.85;;;4.47;;
64686;SDS011;51113;53.646;-113.674;2023-04-25T07:04:26;8.38;;;3.95;;
64686;SDS011;51113;53.646;-113.674;2023-04-25T07:06:55;10.45;;;4.30;;
64686;SDS011;51113;53.646;-113.674;2023-04-25T07:09:23;9.00;;;3.95;;
64686;SDS011;51113;53.646;-113.674;2023-04-25T07:11:52;7.93;;;4.40;;
64686;SDS011;51113;53.646;-113.674;2023-04-25T07:14:22;7.15;;;3.95;;
64686;SDS011;51113;53.646;-113.674;2023-04-25T07:16:50;8.32;;;5.05;;
64686;SDS011;51113;53.646;-113.674;2023-04-25T07:19:18;11.13;;;4.38;;
64686;SDS011;51113;53.646;-113.674;2023-04-25T07:21:47;7.95;;;3.75;;
64686;SDS011;51113;53.646;-113.674;2023-04-25T07:24:17;9.32;;;4.35;;
64686;SDS011;51113;53.646;-113.674;2023-04-25T07:26:46;8.15;;;4.95;;
64686;SDS011;51113;53.646;-113.674;2023-04-25T07:29:15;11.90;;;4.75;;
64686;SDS011;51113;53.646;-113.674;2023-04-25T07:31:44;10.00;;;5.22;;
64686;SDS011;51113;53.646;-113.674;2023-04-25T07:34:13;10.65;;;4.55;;
64686;SDS011;51113;53.646;-113.674;2023-04-25T07:36:43;7.95;;;4.90;;
64686;SDS011;51113;53.646;-113.674;2023-04-25T07:39:11;10.60;;;5.30;;
64686;SDS011;51113;53.646;-113.674;2023-04-25T07:41:40;9.07;;;5.03;;
64686;SDS011;51113;53.646;-113.674;2023-04-25T07:44:08;6.65;;;4.38;;
64686;SDS011;51113;53.646;-113.674;2023-04-25T07:46:37;14.00;;;5.00;;
64686;SDS011;51113;53.646;-113.674;2023-04-25T07:49:05;10.32;;;5.13;;
64686;SDS011;51113;53.646;-113.674;2023-04-25T07:51:33;10.48;;;5.47;;
64686;SDS011;51113;53.646;-113.674;2023-04-25T07:54:02;16.38;;;5.22;;
64686;SDS011;51113;53.646;-113.674;2023-04-25T07:56:30;14.05;;;5.53;;
64686;SDS011;51113;53.646;-113.674;2023-04-25T07:59:17;11.73;;;5.50;;
64686;SDS011;51113;53.646;-113.674;2023-04-25T08:01:47;11.88;;;4.63;;
64686;SDS011;51113;53.646;-113.674;2023-04-25T08:04:15;11.70;;;5.10;;
64686;SDS011;51113;53.646;-113.674;2023-04-25T08:06:44;9.70;;;5.00;;
64686;SDS011;51113;53.646;-113.674;2023-04-25T08:09:13;12.70;;;5.75;;
64686;SDS011;51113;53.646;-113.674;2023-04-25T08:11:43;10.98;;;5.70;;
64686;SDS011;51113;53.646;-113.674;2023-04-25T08:14:12;9.68;;;5.28;;
64686;SDS011;51113;53.646;-113.674;2023-04-25T08:16:41;9.52;;;5.65;;
64686;SDS011;51113;53.646;-113.674;2023-04-25T08:19:10;10.82;;;5.10;;
64686;SDS011;51113;53.646;-113.674;2023-04-25T08:21:38;12.50;;;5.50;;
64686;SDS011;51113;53.646;-113.674;2023-04-25T08:24:07;9.07;;;5.70;;
64686;SDS011;51113;53.646;-113.674;2023-04-25T08:26:35;11.57;;;5.55;;
64686;SDS011;51113;53.646;-113.674;2023-04-25T08:29:05;12.27;;;5.63;;
64686;SDS011;51113;53.646;-113.674;2023-04-25T08:31:34;8.85;;;5.80;;
64686;SDS011;51113;53.646;-113.674;2023-04-25T08:34:02;9.88;;;5.70;;
64686;SDS011;51113;53.646;-113.674;2023-04-25T08:36:31;13.57;;;5.70;;
64686;SDS011;51113;53.646;-113.674;2023-04-25T08:39:05;13.98;;;7.05;;
64686;SDS011;51113;53.646;-113.674;2023-04-25T08:41:36;30.58;;;6.50;;
64686;SDS011;51113;53.646;-113.674;2023-04-25T08:44:05;24.48;;;6.50;;
64686;SDS011;51113;53.646;-113.674;2023-04-25T08:46:40;17.05;;;6.05;;
64686;SDS011;51113;53.646;-113.674;2023-04-25T08:49:09;13.63;;;6.13;;
64686;SDS011;51113;53.646;-113.674;2023-04-25T08:51:43;16.48;;;6.60;;
64686;SDS011;51113;53.646;-113.674;2023-04-25T08:54:14;15.07;;;6.20;;
64686;SDS011;51113;53.646;-113.674;2023-04-25T08:56:47;14.23;;;6.93;;
64686;SDS011;51113;53.646;-113.674;2023-04-25T08:59:16;12.63;;;6.15;;
64686;SDS011;51113;53.646;-113.674;2023-04-25T09:01:46;14.50;;;6.88;;
64686;SDS011;51113;53.646;-113.674;2023-04-25T09:04:15;10.63;;;6.30;;
64686;SDS011;51113;53.646;-113.674;2023-04-25T09:06:44;11.63;;;6.95;;
64686;SDS011;51113;53.646;-113.674;2023-04-25T09:09:12;13.95;;;6.82;;
64686;SDS011;51113;53.646;-113.674;2023-04-25T09:11:41;12.18;;;6.85;;
64686;SDS011;51113;53.646;-113.674;2023-04-25T09:14:14;15.75;;;6.70;;
64686;SDS011;51113;53.646;-113.674;2023-04-25T09:19:31;14.00;;;7.25;;
64686;SDS011;51113;53.646;-113.674;2023-04-25T09:22:07;16.05;;;8.38;;
64686;SDS011;51113;53.646;-113.674;2023-04-25T09:24:37;16.17;;;8.55;;
64686;SDS011;51113;53.646;-113.674;2023-04-25T09:27:07;19.33;;;7.75;;
64686;SDS011;51113;53.646;-113.674;2023-04-25T09:29:38;14.52;;;8.27;;
64686;SDS011;51113;53.646;-113.674;2023-04-25T09:34:51;17.80;;;8.82;;
64686;SDS011;51113;53.646;-113.674;2023-04-25T09:37:24;13.20;;;8.23;;
64686;SDS011;51113;53.646;-113.674;2023-04-25T09:39:57;12.35;;;8.25;;
64686;SDS011;51113;53.646;-113.674;2023-04-25T09:42:29;16.25;;;9.50;;
64686;SDS011;51113;53.646;-113.674;2023-04-25T09:45:00;15.40;;;8.32;;
64686;SDS011;51113;53.646;-113.674;2023-04-25T09:47:32;14.43;;;8.65;;
64686;SDS011;51113;53.646;-113.674;2023-04-25T09:50:13;16.52;;;9.27;;
64686;SDS011;51113;53.646;-113.674;2023-04-25T09:52:43;15.25;;;9.18;;
64686;SDS011;51113;53.646;-113.674;2023-04-25T09:55:12;15.07;;;9.35;;
64686;SDS011;51113;53.646;-113.674;2023-04-25T09:57:41;15.55;;;8.85;;
64686;SDS011;51113;53.646;-113.674;2023-04-25T10:00:10;16.65;;;10.00;;
64686;SDS011;51113;53.646;-113.674;2023-04-25T10:02:42;15.88;;;9.70;;
64686;SDS011;51113;53.646;-113.674;2023-04-25T10:05:15;19.65;;;9.68;;
64686;SDS011;51113;53.646;-113.674;2023-04-25T10:07:45;17.17;;;10.30;;
64686;SDS011;51113;53.646;-113.674;2023-04-25T10:10:13;19.90;;;11.30;;
64686;SDS011;51113;53.646;-113.674;2023-04-25T10:12:43;16.88;;;9.13;;
64686;SDS011;51113;53.646;-113.674;2023-04-25T10:15:13;17.45;;;9.75;;
64686;SDS011;51113;53.646;-113.674;2023-04-25T10:17:43;16.95;;;10.25;;
64686;SDS011;51113;53.646;-113.674;2023-04-25T10:20:13;21.38;;;12.93;;
64686;SDS011;51113;53.646;-113.674;2023-04-25T10:22:43;20.10;;;11.55;;
64686;SDS011;51113;53.646;-113.674;2023-04-25T10:25:15;20.38;;;10.65;;
64686;SDS011;51113;53.646;-113.674;2023-04-25T10:27:44;16.80;;;10.95;;
64686;SDS011;51113;53.646;-113.674;2023-04-25T10:30:14;19.13;;;10.55;;
64686;SDS011;51113;53.646;-113.674;2023-04-25T10:32:43;16.13;;;10.32;;
64686;SDS011;51113;53.646;-113.674;2023-04-25T10:35:18;15.93;;;9.63;;
64686;SDS011;51113;53.646;-113.674;2023-04-25T10:38:37;20.92;;;11.45;;
64686;SDS011;51113;53.646;-113.674;2023-04-25T10:41:02;16.88;;;10.43;;
64686;SDS011;51113;53.646;-113.674;2023-04-25T10:43:42;15.15;;;10.70;;
64686;SDS011;51113;53.646;-113.674;2023-04-25T10:49:00;22.35;;;12.57;;
64686;SDS011;51113;53.646;-113.674;2023-04-25T10:51:33;26.25;;;13.73;;
64686;SDS011;51113;53.646;-113.674;2023-04-25T10:54:21;20.27;;;13.45;;
64686;SDS011;51113;53.646;-113.674;2023-04-25T10:56:53;21.15;;;12.38;;
64686;SDS011;51113;53.646;-113.674;2023-04-25T10:59:22;24.90;;;13.55;;
64686;SDS011;51113;53.646;-113.674;2023-04-25T11:01:53;27.75;;;13.23;;
64686;SDS011;51113;53.646;-113.674;2023-04-25T11:04:28;20.05;;;12.73;;
64686;SDS011;51113;53.646;-113.674;2023-04-25T11:09:39;25.25;;;11.90;;
64686;SDS011;51113;53.646;-113.674;2023-04-25T11:12:09;21.55;;;11.60;;
64686;SDS011;51113;53.646;-113.674;2023-04-25T11:14:39;20.95;;;11.85;;
64686;SDS011;51113;53.646;-113.674;2023-04-25T11:17:09;19.92;;;10.45;;
64686;SDS011;51113;53.646;-113.674;2023-04-25T11:19:39;22.13;;;13.38;;
64686;SDS011;51113;53.646;-113.674;2023-04-25T11:22:07;25.90;;;14.70;;
64686;SDS011;51113;53.646;-113.674;2023-04-25T11:24:36;26.25;;;15.35;;
64686;SDS011;51113;53.646;-113.674;2023-04-25T11:27:04;28.77;;;15.30;;
64686;SDS011;51113;53.646;-113.674;2023-04-25T11:29:36;25.77;;;14.48;;
64686;SDS011;51113;53.646;-113.674;2023-04-25T11:32:05;29.48;;;15.23;;
64686;SDS011;51113;53.646;-113.674;2023-04-25T11:34:34;23.83;;;14.00;;
64686;SDS011;51113;53.646;-113.674;2023-04-25T11:37:03;28.90;;;15.85;;
64686;SDS011;51113;53.646;-113.674;2023-04-25T11:39:32;29.15;;;15.38;;
64686;SDS011;51113;53.646;-113.674;2023-04-25T11:42:00;25.63;;;14.88;;
64686;SDS011;51113;53.646;-113.674;2023-04-25T11:44:31;26.10;;;14.45;;
64686;SDS011;51113;53.646;-113.674;2023-04-25T11:47:01;31.38;;;15.98;;
64686;SDS011;51113;53.646;-113.674;2023-04-25T11:49:32;24.75;;;15.30;;
64686;SDS011;51113;53.646;-113.674;2023-04-25T11:52:02;23.02;;;13.68;;
64686;SDS011;51113;53.646;-113.674;2023-04-25T11:54:37;22.27;;;13.52;;
64686;SDS011;51113;53.646;-113.674;2023-04-25T11:57:05;28.27;;;14.15;;
64686;SDS011;51113;53.646;-113.674;2023-04-25T11:59:34;26.65;;;15.88;;
64686;SDS011;51113;53.646;-113.674;2023-04-25T12:02:04;26.58;;;14.10;;
64686;SDS011;51113;53.646;-113.674;2023-04-25T12:04:34;23.63;;;14.43;;
64686;SDS011;51113;53.646;-113.674;2023-04-25T12:07:03;22.90;;;12.82;;
64686;SDS011;51113;53.646;-113.674;2023-04-25T12:09:33;24.55;;;14.45;;
64686;SDS011;51113;53.646;-113.674;2023-04-25T12:12:01;21.40;;;13.73;;
64686;SDS011;51113;53.646;-113.674;2023-04-25T12:14:31;23.98;;;13.57;;
64686;SDS011;51113;53.646;-113.674;2023-04-25T12:17:02;25.45;;;14.05;;
64686;SDS011;51113;53.646;-113.674;2023-04-25T12:19:33;22.08;;;14.25;;
64686;SDS011;51113;53.646;-113.674;2023-04-25T12:22:03;23.70;;;14.65;;
64686;SDS011;51113;53.646;-113.674;2023-04-25T12:24:50;21.27;;;13.07;;
64686;SDS011;51113;53.646;-113.674;2023-04-25T12:27:21;19.40;;;12.77;;
64686;SDS011;51113;53.646;-113.674;2023-04-25T12:29:50;20.45;;;12.40;;
64686;SDS011;51113;53.646;-113.674;2023-04-25T12:32:20;26.58;;;15.98;;
64686;SDS011;51113;53.646;-113.674;2023-04-25T12:34:49;25.17;;;13.93;;
64686;SDS011;51113;53.646;-113.674;2023-04-25T12:37:17;25.25;;;13.50;;
64686;SDS011;51113;53.646;-113.674;2023-04-25T12:39:47;23.83;;;14.35;;
64686;SDS011;51113;53.646;-113.674;2023-04-25T12:42:16;24.80;;;13.65;;
64686;SDS011;51113;53.646;-113.674;2023-04-25T12:44:44;23.98;;;13.43;;
64686;SDS011;51113;53.646;-113.674;2023-04-25T12:47:14;24.40;;;13.02;;
64686;SDS011;51113;53.646;-113.674;2023-04-25T12:49:42;21.85;;;13.07;;
64686;SDS011;51113;53.646;-113.674;2023-04-25T12:52:11;20.35;;;12.57;;
64686;SDS011;51113;53.646;-113.674;2023-04-25T12:54:39;22.02;;;12.65;;
64686;SDS011;51113;53.646;-113.674;2023-04-25T12:57:08;23.08;;;13.23;;
64686;SDS011;51113;53.646;-113.674;2023-04-25T12:59:37;21.45;;;13.23;;
64686;SDS011;51113;53.646;-113.674;2023-04-25T13:02:06;19.75;;;12.57;;
64686;SDS011;51113;53.646;-113.674;2023-04-25T13:04:34;20.38;;;12.45;;
64686;SDS011;51113;53.646;-113.674;2023-04-25T13:07:03;19.00;;;11.65;;
64686;SDS011;51113;53.646;-113.674;2023-04-25T13:09:33;19.13;;;11.98;;
64686;SDS011;51113;53.646;-113.674;2023-04-25T13:12:01;16.55;;;11.68;;
64686;SDS011;51113;53.646;-113.674;2023-04-25T13:14:30;19.67;;;11.05;;
64686;SDS011;51113;53.646;-113.674;2023-04-25T13:16:58;19.45;;;11.13;;
64686;SDS011;51113;53.646;-113.674;2023-04-25T13:19:27;21.63;;;12.23;;
64686;SDS011;51113;53.646;-113.674;2023-04-25T13:21:56;23.33;;;12.55;;
64686;SDS011;51113;53.646;-113.674;2023-04-25T13:24:24;23.75;;;11.73;;
64686;SDS011;51113;53.646;-113.674;2023-04-25T13:26:54;21.70;;;12.50;;
64686;SDS011;51113;53.646;-113.674;2023-04-25T13:29:22;23.25;;;14.02;;
64686;SDS011;51113;53.646;-113.674;2023-04-25T13:31:51;21.20;;;13.13;;
64686;SDS011;51113;53.646;-113.674;2023-04-25T13:34:20;25.02;;;13.75;;
64686;SDS011;51113;53.646;-113.674;2023-04-25T13:36:48;24.05;;;13.32;;
64686;SDS011;51113;53.646;-113.674;2023-04-25T13:39:18;22.45;;;14.60;;
64686;SDS011;51113;53.646;-113.674;2023-04-25T13:41:47;28.98;;;14.38;;
64686;SDS011;51113;53.646;-113.674;2023-04-25T13:44:16;30.65;;;15.15;;
64686;SDS011;51113;53.646;-113.674;2023-04-25T13:46:44;22.40;;;14.05;;
64686;SDS011;51113;53.646;-113.674;2023-04-25T13:49:14;24.17;;;14.10;;
64686;SDS011;51113;53.646;-113.674;2023-04-25T13:51:43;20.88;;;12.82;;
64686;SDS011;51113;53.646;-113.674;2023-04-25T13:54:11;19.60;;;12.20;;
64686;SDS011;51113;53.646;-113.674;2023-04-25T13:56:40;23.45;;;12.73;;
64686;SDS011;51113;53.646;-113.674;2023-04-25T13:59:09;22.23;;;11.07;;
64686;SDS011;51113;53.646;-113.674;2023-04-25T14:01:39;21.42;;;11.57;;
64686;SDS011;51113;53.646;-113.674;2023-04-25T14:04:08;16.70;;;11.20;;
64686;SDS011;51113;53.646;-113.674;2023-04-25T14:06:36;18.83;;;11.50;;
64686;SDS011;51113;53.646;-113.674;2023-04-25T14:09:06;16.10;;;10.35;;
64686;SDS011;51113;53.646;-113.674;2023-04-25T14:11:37;22.50;;;10.40;;
64686;SDS011;51113;53.646;-113.674;2023-04-25T14:14:06;20.67;;;9.90;;
64686;SDS011;51113;53.646;-113.674;2023-04-25T14:16:35;17.58;;;9.32;;
64686;SDS011;51113;53.646;-113.674;2023-04-25T14:19:04;16.05;;;10.18;;
64686;SDS011;51113;53.646;-113.674;2023-04-25T14:21:32;22.17;;;10.05;;
64686;SDS011;51113;53.646;-113.674;2023-04-25T14:24:01;18.08;;;9.80;;